Daily Reports
[Refresh to Update]

Barometric Pressure Shown is Corrected to Site Pressure


Today's History

4/25/19
Time         Wind Dir   Wind Spd  Wind Gust   Humidity       Temp   Tot Rain   Barom SL   24HrRain   RainRate  MonthRain
                            mph        mph          %         F         in         in         in      in/hr         in
12:00am            94        6.0        7.0       51.0       55.9       2.93      28.67       0.00      0.000       2.93
12:10am           141        4.0        4.0       53.0       55.8       2.93      28.67       0.00      0.000       2.93
12:20am           146        3.0        4.0       55.0       55.6       2.93      28.67       0.00      0.000       2.93
12:30am           107        2.0        3.0       54.0       55.6       2.93      28.67       0.00      0.000       2.93
12:40am           136        0.0        2.0       54.0       55.7       2.93      28.67       0.00      0.000       2.93

 


Yesterday's History

4/24/19
Time         Wind Dir   Wind Spd  Wind Gust   Humidity       Temp   Tot Rain   Barom SL   24HrRain   RainRate  MonthRain
                            mph        mph          %         F         in         in         in      in/hr         in
12:00am           240        9.0       12.0       80.0       47.4       2.93      28.77       0.17      0.000       2.93
12:10am           255       10.0       11.0       80.0       47.3       2.93      28.77       0.17      0.000       2.93
12:20am           252       10.0       10.0       80.0       47.0       2.93      28.78       0.17      0.000       2.93
12:30am           251        7.0       11.0       81.0       46.8       2.93      28.78       0.17      0.000       2.93
12:40am           259        7.0        9.0       81.0       46.7       2.93      28.78       0.17      0.000       2.93
12:50am           262       10.0       11.0       81.0       46.5       2.93      28.78       0.17      0.000       2.93
1:00am            263       13.0       14.0       81.0       46.5       2.93      28.77       0.17      0.000       2.93
1:10am            264       10.0       12.0       81.0       46.3       2.93      28.77       0.17      0.000       2.93
1:20am            252        9.0       10.0       81.0       46.1       2.93      28.77       0.17      0.000       2.93
1:30am            268       10.0       11.0       82.0       45.9       2.93      28.77       0.17      0.000       2.93
1:40am            267       10.0       10.0       82.0       45.6       2.93      28.77       0.17      0.000       2.93
1:50am            272       10.0       10.0       82.0       45.4       2.93      28.77       0.17      0.000       2.93
2:00am            269        8.0       11.0       82.0       45.4       2.93      28.77       0.17      0.000       2.93
2:10am            266        9.0       10.0       82.0       45.3       2.93      28.77       0.17      0.000       2.93
2:20am            268        7.0        9.0       82.0       44.8       2.93      28.77       0.17      0.000       2.93
2:30am            273        7.0        8.0       83.0       44.3       2.93      28.77       0.17      0.000       2.93
2:40am            276        4.0        6.0       84.0       44.2       2.93      28.77       0.17      0.000       2.93
2:50am            256        5.0        7.0       84.0       44.1       2.93      28.77       0.17      0.000       2.93
3:00am            258        3.0        4.0       83.0       44.4       2.93      28.77       0.17      0.000       2.93
3:10am            258        2.0        4.0       82.0       44.2       2.93      28.77       0.17      0.000       2.93
3:20am            257        2.0        3.0       82.0       44.3       2.93      28.78       0.17      0.000       2.93
3:30am            265        4.0        6.0       81.0       44.1       2.93      28.78       0.17      0.000       2.93
3:40am            271        6.0        7.0       84.0       43.3       2.93      28.78       0.17      0.000       2.93
3:50am            273        6.0       10.0       84.0       43.1       2.93      28.78       0.17      0.000       2.93
4:00am            286        6.0        6.0       84.0       43.1       2.93      28.78       0.01      0.000       2.93
4:10am            275        4.0        6.0       84.0       42.7       2.93      28.77       0.01      0.000       2.93
4:20am            273        7.0        7.0       85.0       42.6       2.93      28.78       0.01      0.000       2.93
4:30am            274        4.0        7.0       85.0       42.4       2.93      28.78       0.01      0.000       2.93
4:40am            265        7.0        8.0       85.0       42.2       2.93      28.78       0.01      0.000       2.93
4:50am            279        4.0        6.0       85.0       42.0       2.93      28.78       0.01      0.000       2.93
5:00am            274        6.0        7.0       85.0       41.5       2.93      28.78       0.01      0.000       2.93
5:10am            269        6.0        7.0       86.0       41.2       2.93      28.78       0.01      0.000       2.93
5:20am            266        6.0        6.0       87.0       41.5       2.93      28.77       0.01      0.000       2.93
5:30am            267        3.0        4.0       87.0       41.1       2.93      28.77       0.01      0.000       2.93
5:40am            263        4.0        4.0       85.0       41.8       2.93      28.78       0.01      0.000       2.93
5:50am            252        4.0        5.0       86.0       41.8       2.93      28.78       0.01      0.000       2.93
6:00am            279        4.0        4.0       84.0       41.4       2.93      28.78       0.01      0.000       2.93
6:10am            261        4.0        4.0       87.0       40.3       2.93      28.78       0.01      0.000       2.93
6:20am            240        3.0        4.0       87.0       40.6       2.93      28.79       0.01      0.000       2.93
6:30am            247        3.0        3.0       87.0       40.6       2.93      28.79       0.01      0.000       2.93
6:40am            247        2.0        2.0       87.0       40.5       2.93      28.79       0.01      0.000       2.93
6:50am            247        1.0        2.0       88.0       40.3       2.93      28.80       0.01      0.000       2.93
7:00am            247        3.0        4.0       87.0       40.7       2.93      28.80       0.01      0.000       2.93
7:10am            261        3.0        4.0       87.0       40.1       2.93      28.81       0.01      0.000       2.93
7:20am            263        4.0        4.0       88.0       39.4       2.93      28.81       0.01      0.000       2.93
7:30am            266        4.0        4.0       90.0       40.1       2.93      28.81       0.01      0.000       2.93
7:40am            272        4.0        6.0       90.0       41.8       2.93      28.82       0.01      0.000       2.93
7:50am            260        6.0        6.0       86.0       43.9       2.93      28.82       0.01      0.000       2.93
8:00am            267        7.0        7.0       84.0       45.2       2.93      28.82       0.01      0.000       2.93
8:10am            283        8.0        8.0       81.0       45.9       2.93      28.82       0.01      0.000       2.93
8:20am            310        9.0        9.0       78.0       46.3       2.93      28.81       0.01      0.000       2.93
8:30am            282        4.0        6.0       79.0       46.5       2.93      28.81       0.01      0.000       2.93
8:40am            300        7.0       10.0       78.0       46.9       2.93      28.82       0.01      0.000       2.93
8:50am            294        5.0        8.0       79.0       47.3       2.93      28.82       0.01      0.000       2.93
9:00am            307        5.0        7.0       76.0       47.9       2.93      28.82       0.01      0.000       2.93
9:10am            288        4.0        7.0       76.0       47.9       2.93      28.82       0.01      0.000       2.93
9:20am            308        9.0        9.0       75.0       48.3       2.93      28.82       0.01      0.000       2.93
9:30am            300        4.0        5.0       75.0       48.6       2.93      28.82       0.01      0.000       2.93
9:40am            274        6.0        6.0       75.0       49.1       2.93      28.82       0.01      0.000       2.93
9:50am            314        4.0        4.0       74.0       49.5       2.93      28.82       0.01      0.000       2.93
10:00am           355        5.0        6.0       72.0       50.3       2.93      28.81       0.01      0.000       2.93
10:10am            49        4.0        5.0       69.0       50.4       2.93      28.82       0.01      0.000       2.93
10:20am           306        2.0        3.0       64.0       51.0       2.93      28.82       0.01      0.000       2.93
10:30am           104        0.0        1.0       64.0       51.7       2.93      28.82       0.01      0.000       2.93
10:40am           251        1.0        2.0       65.0       52.2       2.93      28.82       0.01      0.000       2.93
10:50am            32        1.0        2.0       64.0       53.0       2.93      28.81       0.01      0.000       2.93
11:00am           301        1.0        1.0       65.0       52.9       2.93      28.81       0.01      0.000       2.93
11:10am           106        2.0        3.0       61.0       52.3       2.93      28.81       0.01      0.000       2.93
11:20am           125        0.0        2.0       62.0       52.7       2.93      28.82       0.01      0.000       2.93
11:30am           125        0.0        0.0       62.0       52.8       2.93      28.81       0.01      0.000       2.93
11:40am           125        1.0        1.0       62.0       52.9       2.93      28.82       0.01      0.000       2.93
11:50am           125        0.0        0.0       60.0       53.4       2.93      28.82       0.01      0.000       2.93
12:00pm            85        0.0        0.0       58.0       53.6       2.93      28.82       0.01      0.000       2.93
12:10pm            85        0.0        0.0       61.0       53.7       2.93      28.81       0.01      0.000       2.93
12:20pm           241        4.0        4.0       60.0       54.1       2.93      28.81       0.01      0.000       2.93
12:30pm           245        0.0        0.0       56.0       55.2       2.93      28.81       0.01      0.000       2.93
12:40pm            99        3.0        3.0       56.0       56.3       2.93      28.81       0.01      0.000       2.93
12:50pm            77        4.0        5.0       51.0       56.0       2.93      28.80       0.01      0.000       2.93
1:00pm            130        4.0        4.0       52.0       55.8       2.93      28.80       0.01      0.000       2.93
1:10pm            137        2.0        3.0       49.0       56.3       2.93      28.80       0.01      0.000       2.93
1:20pm            165        1.0        2.0       50.0       56.2       2.93      28.80       0.01      0.000       2.93
1:30pm            182        0.0        1.0       51.0       56.7       2.93      28.80       0.01      0.000       2.93
1:40pm            340        1.0        2.0       49.0       56.5       2.93      28.79       0.01      0.000       2.93
1:50pm             13        2.0        2.0       52.0       56.1       2.93      28.79       0.01      0.000       2.93
2:00pm            117        2.0        3.0       50.0       56.1       2.93      28.79       0.01      0.000       2.93
2:10pm            111        6.0        7.0       52.0       56.0       2.93      28.79       0.01      0.000       2.93
2:20pm            338        0.0        2.0       54.0       56.1       2.93      28.79       0.01      0.000       2.93
2:30pm             74        3.0        4.0       51.0       56.0       2.93      28.78       0.01      0.000       2.93
2:40pm             65        4.0        4.0       52.0       56.4       2.93      28.78       0.00      0.000       2.93
2:50pm             12        2.0        4.0       52.0       56.5       2.93      28.77       0.00      0.000       2.93
3:00pm            153        2.0        2.0       52.0       56.6       2.93      28.76       0.00      0.000       2.93
3:10pm             78        4.0        4.0       52.0       56.9       2.93      28.76       0.00      0.000       2.93
3:20pm            132        3.0        3.0       53.0       57.1       2.93      28.75       0.00      0.000       2.93
3:30pm            138        4.0        7.0       51.0       56.9       2.93      28.75       0.00      0.000       2.93
3:40pm            109        7.0       10.0       49.0       57.0       2.93      28.74       0.00      0.000       2.93
3:50pm            121        5.0        6.0       48.0       57.0       2.93      28.73       0.00      0.000       2.93
4:00pm             38        6.0       11.0       50.0       56.7       2.93      28.72       0.00      0.000       2.93
4:10pm             60        4.0        6.0       48.0       56.9       2.93      28.73       0.00      0.000       2.93
4:20pm             81        2.0        3.0       45.0       57.2       2.93      28.73       0.00      0.000       2.93
4:30pm            158        6.0        7.0       46.0       57.1       2.93      28.75       0.00      0.000       2.93
4:40pm            160        2.0        2.0       49.0       57.2       2.93      28.74       0.00      0.000       2.93
4:50pm             47        1.0        2.0       45.0       56.9       2.93      28.74       0.00      0.000       2.93
5:00pm             75        2.0        3.0       45.0       57.3       2.93      28.73       0.00      0.000       2.93
5:10pm             96        0.0        3.0       43.0       57.2       2.93      28.72       0.00      0.000       2.93
5:20pm             58        2.0        4.0       46.0       57.3       2.93      28.72       0.00      0.000       2.93
5:30pm             63        1.0        3.0       43.0       57.7       2.93      28.72       0.00      0.000       2.93
5:40pm             77        7.0        7.0       45.0       57.7       2.93      28.72       0.00      0.000       2.93
5:50pm             57        3.0        4.0       44.0       57.5       2.93      28.72       0.00      0.000       2.93
6:00pm             58        3.0        4.0       46.0       57.5       2.93      28.72       0.00      0.000       2.93
6:10pm             13        1.0        2.0       45.0       57.3       2.93      28.72       0.00      0.000       2.93
6:20pm             14        0.0        1.0       44.0       57.3       2.93      28.73       0.00      0.000       2.93
6:30pm             15        2.0        3.0       47.0       57.1       2.93      28.72       0.00      0.000       2.93
6:40pm              9        3.0        3.0       44.0       56.9       2.93      28.72       0.00      0.000       2.93
6:50pm             10        4.0        4.0       44.0       56.9       2.93      28.72       0.00      0.000       2.93
7:00pm             10        3.0        4.0       45.0       56.9       2.93      28.72       0.00      0.000       2.93
7:10pm             46        3.0        5.0       45.0       56.7       2.93      28.71       0.00      0.000       2.93
7:20pm             34        1.0        3.0       45.0       56.6       2.93      28.72       0.00      0.000       2.93
7:30pm             16        4.0        4.0       46.0       56.4       2.93      28.71       0.00      0.000       2.93
7:40pm             36        2.0        5.0       46.0       56.3       2.93      28.71       0.00      0.000       2.93
7:50pm             38        4.0        4.0       48.0       56.2       2.93      28.71       0.00      0.000       2.93
8:00pm             28        3.0        4.0       49.0       56.0       2.93      28.71       0.00      0.000       2.93
8:10pm              9        3.0        4.0       51.0       55.9       2.93      28.71       0.00      0.000       2.93
8:20pm             23        3.0        3.0       52.0       55.8       2.93      28.72       0.00      0.000       2.93
8:30pm             24        2.0        2.0       53.0       55.7       2.93      28.72       0.00      0.000       2.93
8:40pm             42        3.0        4.0       53.0       55.7       2.93      28.71       0.00      0.000       2.93
8:50pm             41        3.0        4.0       54.0       55.6       2.93      28.71       0.00      0.000       2.93
9:00pm             69        8.0       10.0       51.0       56.1       2.93      28.69       0.00      0.000       2.93
9:10pm            355        1.0        3.0       52.0       55.9       2.93      28.71       0.00      0.000       2.93
9:20pm             38        3.0        4.0       54.0       55.5       2.93      28.70       0.00      0.000       2.93
9:30pm             60        3.0        3.0       55.0       55.4       2.93      28.71       0.00      0.000       2.93
9:40pm             30        2.0        2.0       54.0       55.4       2.93      28.71       0.00      0.000       2.93
9:50pm             55        2.0        4.0       53.0       55.5       2.93      28.71       0.00      0.000       2.93
10:00pm            50        3.0        4.0       53.0       55.7       2.93      28.71       0.00      0.000       2.93
10:10pm            68        4.0        4.0       52.0       55.7       2.93      28.70       0.00      0.000       2.93
10:20pm            84        4.0        6.0       51.0       56.0       2.93      28.70       0.00      0.000       2.93
10:30pm            74        2.0        3.0       53.0       55.8       2.93      28.71       0.00      0.000       2.93
10:40pm            57        3.0        4.0       52.0       55.7       2.93      28.70       0.00      0.000       2.93
10:50pm            59        3.0        4.0       53.0       55.7       2.93      28.70       0.00      0.000       2.93
11:00pm            68        2.0        3.0       52.0       55.9       2.93      28.69       0.00      0.000       2.93
11:10pm            68        1.0        1.0       53.0       55.7       2.93      28.69       0.00      0.000       2.93
11:20pm            75        3.0        4.0       53.0       55.7       2.93      28.68       0.00      0.000       2.93
11:30pm            75        5.0        5.0       53.0       55.7       2.93      28.67       0.00      0.000       2.93
11:40pm            74        4.0        4.0       52.0       55.8       2.93      28.68       0.00      0.000       2.93
11:50pm            75        3.0        4.0       54.0       55.6       2.93      28.67       0.00      0.000       2.93


NOAA Yearly Report

                  YEARLY CLIMATOLOGICAL SUMMARY FOR 2019
                                        HEAT  COOL        
     MEAN                               DEG   DEG       WIND SPEED       DOM MEAN  MEAN
MON  TEMP  HIGH   DATE     LOW   DATE   DAYS  DAYS RAIN AVG  HI  DATE    DIR BAROM HUM
---------------------------------------------------------------------------------------
1    26.1  59.2   1/8/19  -8.5  1/30/19 1198    0  0.85   4  36  1/19/19  NE 28.95   83
2    31.7  58.3   2/7/19   4.0   2/1/19  933    0  3.43   8  56  2/24/19 SSW 28.94   84
3    36.0 158.0  3/14/19   5.4   3/5/19  898    0  2.72   9  46  3/10/19 SSW 28.97   75
4    52.0 158.0  4/14/19  20.8   4/1/19  327   15  2.93   9 254  4/18/19 ESE 28.75   67
---------------------------------------------------------------------------------------
TOT  35.6 158.0  3/14/19  -8.5  1/30/19 3357   16  2.91   7 254  4/18/19 ESE 28.92   77

HEAT BASE: 65.0
COOL BASE: 65.0


NOAA Monthly Report

                  MONTHLY CLIMATOLOGICAL SUMMARY FOR 4/2019
                                        HEAT  COOL        
     MEAN                               DEG   DEG       WIND SPEED       DOM MEAN  MEAN
DAY  TEMP  HIGH   TIME     LOW   TIME   DAYS  DAYS RAIN AVG  HI  TIME    DIR BAROM HUM
---------------------------------------------------------------------------------------
1    32.8  42.4   4:48pm  20.8   6:31am   32    0  0.00   4  17   2:54pm ESE 29.18   61
2    42.8  55.9   6:04pm  30.2   7:37am   22    0  0.00   6  20   3:29pm ESE 28.94   53
3    48.7  57.6   4:06pm  38.8   7:26am   16    0  0.00   9  27   3:32pm  SW 29.04   53
4    37.2  51.0   4:44pm  42.2   4:59am   26    0  0.00   5  22   6:00pm WNW 29.11   54
5    49.6  58.9   5:10pm  42.0   5:25am   15    0  0.03   3  14   8:47am   E 28.90   79
6    56.5  67.2   3:58pm  47.7   6:58am    9    0  0.00   2  13   4:11pm ESE 28.94   69
7    56.8  69.8   5:07pm  42.3   4:31am    9    1  0.00   7  33   6:06pm  SE 28.77   80
8    62.9  69.9   5:20pm  52.6  11:13pm    3    1  0.00   8  26  12:58am   S 28.63   76
9    58.0  65.0   3:04pm  48.5  11:59pm    7    0  0.00  12  32  11:47am   W 28.57   54
10   46.3  54.0   1:31pm  39.5   7:18am   19    0  0.00   8  24   9:15pm NNW 28.72   64
11   57.4  79.7   4:30pm  38.7   7:03am   11    4  0.00  11  31   6:19pm ESE 28.65   57
12   62.6  70.4   1:13am  54.1  11:56pm    3    0  0.19  16  47   8:37am ESE 28.58   58
13   53.9  64.1   5:53pm  37.9   7:30am   11    0  0.00   6  18  11:51am  SW 28.84   49
14   48.7 158.0   5:29pm  38.7   6:18am   16    0  0.91  11  45   5:33pm  SW 28.38   84
15   41.4  51.7   5:31pm  33.4   3:40am   24    0  0.02  15  33  12:14am  SW 28.71   75
16   55.6  72.8   5:37pm  40.7   7:05am   11    2  0.00  10  31   2:37pm ESE 28.85   62
17   63.9  71.4   3:16pm  53.6   6:49am    3    2  0.00   8  24   3:34pm ESE 28.70   61
18   66.0  75.4   5:52pm  34.4   7:39am    2    3  0.02  13 254   7:40am  SE 28.46   64
19   45.5  56.6  12:00am  39.9  11:35pm   20    0  0.91  15  34   8:12pm WNW 28.36   93
20   42.2  46.8   5:09pm  39.9  12:44am   23    0  0.56  11 128   4:40am  NW 28.42   92
21   48.0  58.8   5:08pm  39.7   4:48am   17    0  0.00   4  12   9:16am  SW 28.85   81
22   57.9  72.1   6:06pm  42.2   6:00am    8    1  0.00   7  19   2:50pm ESE 28.96   61
23   60.6  72.3   1:30pm  47.4  11:57pm    5    1  0.17  12 191   3:56am ESE 28.72   67
24   50.9  57.8   5:31pm  39.4   7:17am   14    0  0.00   4  16   1:03am   W 28.76   65
---------------------------------------------------------------------------------------
TOT  52.0 158.0  4/14/19  20.8   4/1/19  327   15  2.93   9 254  4/18/19 ESE 28.75   67

HEAT BASE: 65.0
COOL BASE: 65.0